Belle Plaine, Iowa
Current Conditions -  °F | °C
As of 6:15 PM on Thursday 27 Nov 2014 (Local Time) from KVTI Reporting Station
Clear Clear  
Wind Chill:   Ceiling: Unl
Heat Index:   Visibility: 10mi
Dew Point:   Wind: 0mph
Humidity: 75%   Direction: NA
Pressure: 30.42"   Gusts: NA
Location:  41.9°N, 92.28°W
Report Text: KVTI 280015Z AUTO 00000KT 10SM CLR M14/M17 A3042 RMK AO2 T11361172
Loading
Personal Weather Stations






























Interactive Weather Map New forecast layout! Learn more

10-Day Weather Forecast

Advertisements
Track Severe Weather on mobile